Terminal Aerodrome Forecast
Issued by NWS

Home | Current Version | Previous Version | Text Only | Print | Product List | Glossary On
Versions: 1 2 3 4 5 6 7 8 9 10 11 12
000
FTUS45 KABQ 271100
TAFTCC
TAF
KTCC 271122Z 2712/2812 24009KT P6SM SKC
     FM271800 22014G24KT P6SM SCT250
     FM280600 26011KT P6SM BKN250=

USA.gov is the U.S. government's official web portal to all federal, state and local government web resources and services.